createdAt,value
2022-12-22T00:01:20.024Z,40.75
2022-12-22T00:04:06.089Z,41.97
2022-12-22T00:06:52.029Z,40.80
2022-12-22T00:09:37.629Z,43.65
2022-12-22T00:12:23.685Z,38.15
2022-12-22T00:15:09.414Z,38.35
2022-12-22T00:17:55.449Z,39.50
2022-12-22T00:20:41.722Z,39.03
2022-12-22T00:23:30.452Z,38.10
2022-12-22T00:26:18.191Z,36.53
2022-12-22T00:29:03.830Z,36.58
2022-12-22T00:31:49.796Z,39.10
2022-12-22T00:34:39.312Z,37.58
2022-12-22T00:37:31.511Z,33.20
2022-12-22T00:40:20.274Z,39.22
2022-12-22T00:43:05.935Z,36.22
2022-12-22T00:45:52.106Z,35.28
2022-12-22T00:48:44.564Z,37.80
2022-12-22T00:51:31.691Z,37.28
2022-12-22T00:54:17.882Z,37.80
2022-12-22T00:57:03.653Z,36.28
2022-12-22T00:59:51.356Z,36.03
2022-12-22T01:02:37.710Z,36.20
2022-12-22T01:05:23.960Z,38.80
2022-12-22T01:08:09.634Z,36.97
2022-12-22T01:10:55.878Z,38.42
2022-12-22T01:13:42.140Z,36.38
2022-12-22T01:16:30.775Z,41.05
2022-12-22T01:19:16.783Z,33.40
2022-12-22T01:22:03.012Z,36.03
2022-12-22T01:24:49.738Z,35.83
2022-12-22T01:27:35.980Z,35.50
2022-12-22T01:30:22.316Z,35.35
2022-12-22T01:33:08.494Z,36.88
2022-12-22T01:35:55.096Z,36.15
2022-12-22T01:38:42.893Z,35.63
2022-12-22T01:41:34.652Z,36.70
2022-12-22T01:44:20.228Z,34.27
2022-12-22T01:47:06.222Z,32.88
2022-12-22T01:50:02.552Z,34.28
2022-12-22T01:52:55.246Z,35.90
2022-12-22T01:55:43.913Z,32.75
2022-12-22T01:58:40.123Z,33.25
2022-12-22T02:01:26.398Z,34.97
2022-12-22T02:04:12.413Z,37.30
2022-12-22T02:07:01.065Z,37.45
2022-12-22T02:09:56.424Z,34.50
2022-12-22T02:12:50.593Z,35.50
2022-12-22T02:15:51.360Z,35.00
2022-12-22T02:19:01.021Z,37.70
2022-12-22T02:21:52.629Z,38.72
2022-12-22T02:25:02.599Z,36.90
2022-12-22T02:27:52.266Z,40.17
2022-12-22T02:30:38.995Z,41.53
2022-12-22T02:33:26.522Z,36.88
2022-12-22T02:36:26.715Z,42.15
2022-12-22T02:39:23.730Z,39.88
2022-12-22T02:42:51.190Z,38.70
2022-12-22T02:45:47.482Z,35.63
2022-12-22T02:49:01.043Z,38.50
2022-12-22T02:51:50.209Z,41.63
2022-12-22T02:54:39.846Z,37.63
2022-12-22T02:57:26.110Z,42.08
2022-12-22T03:00:14.261Z,39.40
2022-12-22T03:03:07.829Z,41.25
2022-12-22T03:05:53.974Z,43.55
2022-12-22T03:08:39.786Z,42.38
2022-12-22T03:11:26.542Z,42.25
2022-12-22T03:14:12.205Z,43.53
2022-12-22T03:16:57.789Z,41.17
2022-12-22T03:19:43.434Z,45.95
2022-12-22T03:22:29.017Z,43.97
2022-12-22T03:25:16.845Z,45.25
2022-12-22T03:27:45.489Z,46.88
2022-12-22T03:30:14.957Z,45.80
2022-12-22T03:32:42.394Z,44.83
2022-12-22T03:35:10.853Z,43.72
2022-12-22T03:37:38.369Z,43.30
2022-12-22T03:40:07.473Z,43.97
2022-12-22T03:42:53.490Z,45.63
2022-12-22T03:45:41.057Z,40.67
2022-12-22T03:48:08.603Z,40.97
2022-12-22T03:50:36.389Z,40.33
2022-12-22T03:53:10.668Z,39.45
2022-12-22T03:55:38.098Z,38.70
2022-12-22T03:58:05.558Z,40.58
2022-12-22T04:00:33.126Z,40.55
2022-12-22T04:03:01.579Z,38.83
2022-12-22T04:05:28.926Z,39.72
2022-12-22T04:07:56.425Z,38.50
2022-12-22T04:10:42.085Z,37.45
2022-12-22T04:13:11.268Z,36.72
2022-12-22T04:15:39.767Z,38.05
2022-12-22T04:18:08.315Z,40.25
2022-12-22T04:20:37.812Z,43.10
2022-12-22T04:23:05.240Z,42.05
2022-12-22T04:25:33.768Z,36.60
2022-12-22T04:28:00.873Z,37.92
2022-12-22T04:30:28.124Z,34.50
2022-12-22T04:32:55.525Z,36.25
2022-12-22T04:35:23.002Z,35.25
2022-12-22T04:37:50.446Z,34.63
2022-12-22T04:40:18.248Z,37.00
2022-12-22T04:42:52.498Z,33.25
2022-12-22T04:45:19.941Z,38.28
2022-12-22T04:47:47.564Z,32.92
2022-12-22T04:50:15.069Z,34.53
2022-12-22T04:52:42.523Z,34.95
2022-12-22T04:55:10.090Z,34.58
2022-12-22T04:57:40.821Z,35.97
2022-12-22T05:00:09.744Z,35.70
2022-12-22T05:02:36.948Z,35.90
2022-12-22T05:05:04.449Z,37.75
2022-12-22T05:07:31.692Z,39.40
2022-12-22T05:09:59.119Z,36.15
2022-12-22T05:12:45.173Z,35.83
2022-12-22T05:15:13.485Z,35.70
2022-12-22T05:17:41.062Z,36.75
2022-12-22T05:20:09.115Z,37.25
2022-12-22T05:22:43.710Z,35.40
2022-12-22T05:25:11.310Z,38.30
2022-12-22T05:27:38.724Z,39.50
2022-12-22T05:30:06.811Z,40.63
2022-12-22T05:32:35.373Z,41.15
2022-12-22T05:35:04.148Z,39.40
2022-12-22T05:37:31.760Z,35.55
2022-12-22T05:40:06.775Z,39.20
2022-12-22T05:42:36.122Z,44.45
2022-12-22T05:45:07.626Z,44.92
2022-12-22T05:47:35.570Z,41.72
2022-12-22T05:50:03.365Z,42.65
2022-12-22T05:52:31.565Z,44.25
2022-12-22T05:54:59.028Z,41.25
2022-12-22T05:57:26.518Z,41.50
2022-12-22T05:59:53.887Z,42.50
2022-12-22T06:02:21.652Z,41.90
2022-12-22T06:04:48.897Z,43.08
2022-12-22T06:07:16.397Z,40.20
2022-12-22T06:09:45.950Z,39.92
2022-12-22T06:12:13.271Z,41.05
2022-12-22T06:14:40.706Z,42.80
2022-12-22T06:17:08.415Z,41.92
2022-12-22T06:19:35.623Z,41.45
2022-12-22T06:22:05.179Z,45.90
2022-12-22T06:24:34.671Z,42.90
2022-12-22T06:27:01.698Z,38.83
2022-12-22T06:29:35.336Z,40.30
2022-12-22T06:32:03.711Z,39.95
2022-12-22T06:34:31.102Z,42.13
2022-12-22T06:36:58.583Z,42.05
2022-12-22T06:39:25.945Z,43.88
2022-12-22T06:42:11.861Z,40.78
2022-12-22T06:44:39.450Z,41.55
2022-12-22T06:47:07.324Z,43.50
2022-12-22T06:49:34.878Z,49.15
2022-12-22T06:52:02.466Z,46.85
2022-12-22T06:54:30.755Z,43.88
2022-12-22T06:56:58.157Z,43.92
2022-12-22T06:59:26.685Z,45.10
2022-12-22T07:01:54.163Z,45.13
2022-12-22T07:04:22.446Z,41.92
2022-12-22T07:06:51.053Z,44.67
2022-12-22T07:09:18.585Z,46.85
2022-12-22T07:11:45.966Z,40.97
2022-12-22T07:14:13.400Z,42.88
2022-12-22T07:16:40.993Z,43.40
2022-12-22T07:19:08.378Z,42.78
2022-12-22T07:21:35.810Z,41.78
2022-12-22T07:24:02.845Z,43.80
2022-12-22T07:26:30.340Z,34.75
2022-12-22T07:28:57.537Z,37.33
2022-12-22T07:31:24.840Z,34.25
2022-12-22T07:33:52.236Z,41.83
2022-12-22T07:36:20.526Z,39.88
2022-12-22T07:38:50.970Z,37.35
2022-12-22T07:41:38.801Z,38.63
2022-12-22T07:44:08.563Z,38.95
2022-12-22T07:46:38.922Z,40.40
2022-12-22T07:49:25.927Z,40.08
2022-12-22T07:51:57.055Z,30.88
2022-12-22T07:54:26.947Z,37.75
2022-12-22T07:56:54.861Z,39.63
2022-12-22T07:59:22.397Z,41.35
2022-12-22T08:01:50.247Z,37.40
2022-12-22T08:04:18.122Z,41.05
2022-12-22T08:06:45.493Z,39.05
2022-12-22T08:09:18.116Z,39.58
2022-12-22T08:11:46.559Z,40.28
2022-12-22T08:14:13.822Z,36.58
2022-12-22T08:16:41.364Z,37.05
2022-12-22T08:19:09.805Z,39.80
2022-12-22T08:21:37.270Z,35.45
2022-12-22T08:24:05.024Z,21.67
2022-12-22T08:26:37.119Z,33.85
2022-12-22T08:29:16.300Z,35.15
2022-12-22T08:31:49.872Z,31.23
2022-12-22T08:34:17.402Z,33.83
2022-12-22T08:36:50.767Z,30.80
2022-12-22T08:39:21.709Z,34.70
2022-12-22T08:41:52.855Z,27.85
2022-12-22T08:44:27.398Z,30.00
2022-12-22T08:46:57.045Z,31.42
2022-12-22T08:49:24.716Z,27.52
2022-12-22T08:51:53.340Z,28.45
2022-12-22T08:54:26.939Z,27.45
2022-12-22T08:56:54.399Z,22.60
2022-12-22T08:59:21.896Z,26.55
2022-12-22T09:01:51.322Z,29.20
2022-12-22T09:04:21.555Z,28.00
2022-12-22T09:06:49.215Z,30.55
2022-12-22T09:09:17.168Z,30.13
2022-12-22T09:11:44.824Z,28.30
2022-12-22T09:14:13.511Z,25.00
2022-12-22T09:16:42.463Z,27.17
2022-12-22T09:19:10.848Z,27.60
2022-12-22T09:21:39.250Z,29.08
2022-12-22T09:24:07.867Z,30.17
2022-12-22T09:26:35.554Z,26.67
2022-12-22T09:29:03.028Z,23.92
2022-12-22T09:31:30.635Z,29.38
2022-12-22T09:33:58.712Z,25.13
2022-12-22T09:36:29.597Z,26.70
2022-12-22T09:38:57.270Z,24.48
2022-12-22T09:41:35.092Z,26.98
2022-12-22T09:44:34.267Z,22.40
2022-12-22T09:47:04.477Z,25.95
2022-12-22T09:49:32.021Z,24.70
2022-12-22T09:52:04.937Z,22.85
2022-12-22T09:54:32.538Z,24.55
2022-12-22T09:57:00.044Z,23.08
2022-12-22T09:59:29.496Z,20.52
2022-12-22T10:02:35.968Z,23.40
2022-12-22T10:05:38.631Z,22.77
2022-12-22T10:08:13.957Z,22.67
2022-12-22T10:10:42.361Z,20.30
2022-12-22T10:13:20.285Z,22.98
2022-12-22T10:15:48.566Z,18.85
2022-12-22T10:18:21.262Z,21.05
2022-12-22T10:21:06.652Z,21.83
2022-12-22T10:23:49.084Z,23.77
2022-12-22T10:26:29.773Z,21.98
2022-12-22T10:29:08.149Z,22.30
2022-12-22T10:31:40.102Z,23.92
2022-12-22T10:34:14.363Z,22.38
2022-12-22T10:36:49.008Z,24.05
2022-12-22T10:39:54.835Z,22.10
2022-12-22T10:42:24.358Z,23.85
2022-12-22T10:44:51.909Z,21.23
2022-12-22T10:47:24.625Z,21.77
2022-12-22T10:52:30.911Z,24.58
2022-12-22T10:55:20.485Z,21.02
2022-12-22T10:57:48.279Z,21.02
2022-12-22T11:00:30.447Z,14.15
2022-12-22T11:03:12.354Z,18.05
2022-12-22T11:05:40.235Z,20.23
2022-12-22T11:08:19.381Z,19.80
2022-12-22T11:10:52.909Z,19.83
2022-12-22T11:16:17.821Z,16.77
2022-12-22T11:19:04.880Z,18.80
2022-12-22T11:21:38.417Z,16.42
2022-12-22T11:27:06.187Z,18.48
2022-12-22T11:29:56.788Z,19.90
2022-12-22T11:32:49.150Z,24.52
2022-12-22T11:35:31.113Z,19.35
2022-12-22T11:38:30.943Z,22.13
2022-12-22T11:41:32.357Z,20.35
2022-12-22T11:44:28.787Z,19.15
2022-12-22T11:47:09.150Z,22.83
2022-12-22T11:49:47.147Z,21.08
2022-12-22T11:52:48.554Z,24.83
2022-12-22T11:55:42.740Z,21.08
2022-12-22T11:58:26.559Z,23.90
2022-12-22T12:04:09.105Z,18.77
2022-12-22T12:07:11.889Z,21.38
2022-12-22T12:10:03.935Z,21.85
2022-12-22T12:12:56.144Z,22.15
2022-12-22T12:15:47.708Z,22.55
2022-12-22T12:18:28.374Z,21.13
2022-12-22T12:21:28.564Z,19.77
2022-12-22T12:24:30.880Z,18.67
2022-12-22T12:27:16.567Z,19.15
2022-12-22T12:30:36.930Z,17.30
2022-12-22T12:33:01.329Z,19.15
2022-12-22T12:35:56.392Z,20.33
2022-12-22T12:39:06.270Z,17.63
2022-12-22T12:41:24.548Z,19.20
2022-12-22T12:43:55.263Z,17.95
2022-12-22T12:46:56.682Z,20.65
2022-12-22T12:49:37.158Z,18.90
2022-12-22T12:52:12.911Z,18.83
2022-12-22T12:54:49.800Z,15.65
2022-12-22T12:57:26.307Z,17.80
2022-12-22T12:59:59.076Z,16.83
2022-12-22T13:02:32.096Z,20.17
2022-12-22T13:05:33.359Z,17.50
2022-12-22T13:08:22.440Z,20.60
2022-12-22T13:11:31.147Z,17.55
2022-12-22T13:14:03.144Z,18.20
2022-12-22T13:16:35.273Z,19.10
2022-12-22T13:19:15.381Z,16.50
2022-12-22T13:21:54.707Z,16.63
2022-12-22T13:24:30.526Z,18.35
2022-12-22T13:27:10.552Z,17.00
2022-12-22T13:29:43.622Z,15.88
2022-12-22T13:32:34.479Z,16.65
2022-12-22T13:35:32.681Z,18.63
2022-12-22T13:38:02.461Z,16.80
2022-12-22T13:40:42.450Z,12.80
2022-12-22T13:43:18.219Z,16.23
2022-12-22T13:45:53.212Z,20.23
2022-12-22T13:48:25.779Z,18.90
2022-12-22T13:51:02.951Z,18.57
2022-12-22T13:56:55.293Z,19.48
2022-12-22T13:59:25.446Z,18.90
2022-12-22T14:02:15.875Z,17.42
2022-12-22T14:04:51.966Z,18.25
2022-12-22T14:07:25.595Z,18.75
2022-12-22T14:09:57.068Z,14.63
2022-12-22T14:12:30.322Z,17.77
2022-12-22T14:15:01.521Z,20.77
2022-12-22T14:17:32.968Z,21.55
2022-12-22T14:20:09.752Z,22.23
2022-12-22T14:22:45.639Z,21.75
2022-12-22T14:25:19.823Z,22.75
2022-12-22T14:27:53.364Z,22.92
2022-12-22T14:32:55.062Z,26.90
2022-12-22T14:35:23.164Z,26.73
2022-12-22T14:38:24.006Z,28.75
2022-12-22T14:40:57.245Z,25.50
2022-12-22T14:43:32.325Z,28.38
2022-12-22T14:46:09.221Z,26.58
2022-12-22T14:48:47.284Z,27.60
2022-12-22T14:51:20.920Z,25.58
2022-12-22T14:53:52.220Z,25.80
2022-12-22T14:56:27.467Z,26.92
2022-12-22T14:59:27.693Z,20.75
2022-12-22T15:02:30.000Z,22.33
2022-12-22T15:05:29.529Z,23.40
2022-12-22T15:08:07.807Z,21.98
2022-12-22T15:10:44.541Z,23.67
2022-12-22T15:13:39.344Z,23.08
2022-12-22T15:16:13.320Z,21.80
2022-12-22T15:18:40.931Z,22.80
2022-12-22T15:21:13.409Z,21.02
2022-12-22T15:23:41.379Z,22.25
2022-12-22T15:26:09.689Z,17.13
2022-12-22T15:28:36.780Z,19.80
2022-12-22T15:31:07.480Z,22.23
2022-12-22T15:33:34.801Z,19.08
2022-12-22T15:36:03.808Z,17.67
2022-12-22T15:38:38.369Z,18.35
2022-12-22T15:41:07.196Z,14.52
2022-12-22T15:43:57.180Z,16.60
2022-12-22T15:46:25.258Z,16.13
2022-12-22T15:48:53.243Z,14.57
2022-12-22T15:51:28.324Z,13.80
2022-12-22T15:53:58.445Z,13.02
2022-12-22T15:56:31.465Z,15.70
2022-12-22T15:58:59.600Z,15.25
2022-12-22T16:01:27.156Z,13.70
2022-12-22T16:03:57.577Z,12.10
2022-12-22T16:06:25.491Z,10.50
2022-12-22T16:08:54.710Z,12.15
2022-12-22T16:11:21.999Z,12.85
2022-12-22T16:13:50.673Z,10.93
2022-12-22T16:16:18.247Z,11.27
2022-12-22T16:18:45.898Z,13.32
2022-12-22T16:21:19.408Z,14.82
2022-12-22T16:26:20.902Z,14.55
2022-12-22T16:28:48.533Z,15.52
2022-12-22T16:31:26.143Z,12.93
2022-12-22T16:33:53.821Z,15.30
2022-12-22T16:36:21.235Z,13.48
2022-12-22T16:38:50.735Z,12.85
2022-12-22T16:41:22.503Z,14.88
2022-12-22T16:46:45.430Z,15.57
2022-12-22T16:49:22.902Z,16.08
2022-12-22T16:51:54.953Z,13.65
2022-12-22T16:54:22.527Z,14.25
2022-12-22T16:56:52.180Z,17.67
2022-12-22T16:59:20.509Z,15.50
2022-12-22T17:01:57.952Z,11.90
2022-12-22T17:04:30.159Z,12.95
2022-12-22T17:06:59.634Z,12.10
2022-12-22T17:09:33.758Z,10.98
2022-12-22T17:12:01.722Z,11.13
2022-12-22T17:14:37.830Z,10.57
2022-12-22T17:17:05.298Z,11.52
2022-12-22T17:19:32.388Z,13.80
2022-12-22T17:22:01.500Z,17.75
2022-12-22T17:24:29.245Z,23.85
2022-12-22T17:27:06.342Z,21.30
2022-12-22T17:29:35.416Z,15.10
2022-12-22T17:32:02.945Z,15.43
2022-12-22T17:34:32.143Z,15.88
2022-12-22T17:37:00.289Z,17.65
2022-12-22T17:39:30.360Z,16.88
2022-12-22T17:41:57.939Z,21.67
2022-12-22T17:44:27.027Z,20.38
2022-12-22T17:46:54.478Z,21.92
2022-12-22T17:49:27.511Z,22.48
2022-12-22T17:51:55.021Z,23.98
2022-12-22T17:54:27.551Z,21.65
2022-12-22T17:57:03.543Z,22.50
2022-12-22T17:59:31.198Z,23.90
2022-12-22T18:01:59.606Z,24.77
2022-12-22T18:04:28.167Z,26.70
2022-12-22T18:06:56.323Z,22.02
2022-12-22T18:09:26.597Z,23.42
2022-12-22T18:11:55.159Z,26.05
2022-12-22T18:14:23.522Z,23.52
2022-12-22T18:16:51.145Z,25.40
2022-12-22T18:19:18.569Z,22.02
2022-12-22T18:21:46.047Z,23.40
2022-12-22T18:24:19.122Z,23.50
2022-12-22T18:26:47.424Z,24.48
2022-12-22T18:29:18.882Z,22.70
2022-12-22T18:31:46.602Z,23.15
2022-12-22T18:34:14.062Z,25.33
2022-12-22T18:36:42.786Z,24.65
2022-12-22T18:39:17.975Z,25.35
2022-12-22T18:41:45.602Z,21.58
2022-12-22T18:44:19.526Z,22.42
2022-12-22T18:46:47.671Z,22.45
2022-12-22T18:49:17.020Z,20.00
2022-12-22T18:51:45.046Z,19.65
2022-12-22T18:54:31.671Z,19.92
2022-12-22T18:56:59.535Z,20.17
2022-12-22T18:59:28.429Z,20.50
2022-12-22T19:02:19.562Z,17.40
2022-12-22T19:04:52.427Z,16.90
2022-12-22T19:07:23.260Z,18.60
2022-12-22T19:09:53.142Z,18.08
2022-12-22T19:12:26.177Z,16.88
2022-12-22T19:14:58.998Z,19.65
2022-12-22T19:17:29.153Z,16.50
2022-12-22T19:19:57.474Z,15.13
2022-12-22T19:22:25.485Z,15.27
2022-12-22T19:25:01.069Z,14.48
2022-12-22T19:27:29.199Z,16.27
2022-12-22T19:30:04.197Z,14.30
2022-12-22T19:32:46.346Z,14.38
2022-12-22T19:35:18.030Z,12.85
2022-12-22T19:37:51.673Z,15.25
2022-12-22T19:40:20.490Z,15.52
2022-12-22T19:42:52.655Z,12.88
2022-12-22T19:45:24.938Z,14.82
2022-12-22T19:47:54.223Z,15.90
2022-12-22T19:50:26.445Z,16.02
2022-12-22T19:52:55.683Z,15.15
2022-12-22T19:55:25.988Z,14.07
2022-12-22T19:57:55.779Z,14.82
2022-12-22T20:00:27.048Z,14.60
2022-12-22T20:02:57.530Z,14.13
2022-12-22T20:05:30.517Z,15.00
2022-12-22T20:08:02.643Z,16.92
2022-12-22T20:10:33.665Z,16.88
2022-12-22T20:13:20.104Z,17.40
2022-12-22T20:15:50.204Z,16.25
2022-12-22T20:18:23.362Z,14.23
2022-12-22T20:21:02.123Z,20.15
2022-12-22T20:23:36.579Z,17.23
2022-12-22T20:26:08.185Z,16.00
2022-12-22T20:28:39.162Z,19.70
2022-12-22T20:31:08.881Z,24.10
2022-12-22T20:33:36.551Z,23.83
2022-12-22T20:36:17.452Z,42.55
2022-12-22T20:38:47.604Z,30.65
2022-12-22T20:41:15.299Z,33.25
2022-12-22T20:43:45.695Z,31.33
2022-12-22T20:46:26.695Z,28.65
2022-12-22T20:49:03.537Z,30.38
2022-12-22T20:51:33.889Z,33.00
2022-12-22T20:54:01.754Z,25.40
2022-12-22T20:56:35.954Z,30.13
2022-12-22T20:59:24.208Z,21.70
2022-12-22T21:01:53.393Z,17.80
2022-12-22T21:04:22.405Z,13.95
2022-12-22T21:06:52.050Z,13.05
2022-12-22T21:09:20.030Z,13.35
2022-12-22T21:11:48.884Z,13.57
2022-12-22T21:14:16.856Z,13.80
2022-12-22T21:16:44.951Z,14.05
2022-12-22T21:19:18.395Z,11.70
2022-12-22T21:24:14.745Z,12.43
2022-12-22T21:26:48.467Z,13.25
2022-12-22T21:29:23.001Z,13.50
2022-12-22T21:31:50.848Z,13.18
2022-12-22T21:34:18.557Z,11.60
2022-12-22T21:36:49.011Z,11.68
2022-12-22T21:39:33.549Z,14.60
2022-12-22T21:42:00.989Z,10.82
2022-12-22T21:44:31.340Z,15.80
2022-12-22T21:46:59.578Z,31.38
2022-12-22T21:49:29.435Z,32.70
2022-12-22T21:51:56.844Z,26.83
2022-12-22T21:54:25.989Z,16.90
2022-12-22T21:56:54.454Z,19.25
2022-12-22T21:59:24.211Z,25.45
2022-12-22T22:01:57.484Z,27.02
2022-12-22T22:04:25.398Z,25.70
2022-12-22T22:06:53.917Z,25.42
2022-12-22T22:09:21.406Z,16.45
2022-12-22T22:12:07.151Z,16.50
2022-12-22T22:14:36.476Z,15.25
2022-12-22T22:17:03.868Z,11.60
2022-12-22T22:19:32.370Z,10.48
2022-12-22T22:21:59.743Z,12.18
2022-12-22T22:24:27.218Z,16.60
2022-12-22T22:26:56.515Z,14.35
2022-12-22T22:29:23.726Z,12.70
2022-12-22T22:31:51.178Z,11.68
2022-12-22T22:34:18.729Z,9.10
2022-12-22T22:36:51.940Z,9.07
2022-12-22T22:39:19.189Z,8.75
2022-12-22T22:41:46.585Z,8.40
2022-12-22T22:44:14.083Z,8.40
2022-12-22T22:46:41.804Z,8.75
2022-12-22T22:49:09.198Z,9.02
2022-12-22T22:51:36.341Z,8.98
2022-12-22T22:54:04.086Z,9.02
2022-12-22T22:56:39.039Z,8.52
2022-12-22T22:59:07.441Z,7.93
2022-12-22T23:01:35.069Z,7.05
2022-12-22T23:04:03.482Z,8.90
2022-12-22T23:06:31.874Z,8.13
2022-12-22T23:08:59.681Z,7.00
2022-12-22T23:11:29.471Z,8.52
2022-12-22T23:13:56.871Z,7.85
2022-12-22T23:16:25.290Z,8.35
2022-12-22T23:18:55.723Z,9.38
2022-12-22T23:21:24.534Z,8.25
2022-12-22T23:23:56.706Z,8.00
2022-12-22T23:26:25.607Z,9.73
2022-12-22T23:28:56.572Z,9.68
2022-12-22T23:31:28.784Z,9.63
2022-12-22T23:33:57.639Z,10.35
2022-12-22T23:36:25.361Z,10.15
2022-12-22T23:38:52.927Z,9.98
2022-12-22T23:41:20.564Z,11.60
2022-12-22T23:43:49.400Z,10.48
2022-12-22T23:46:17.958Z,11.13
2022-12-22T23:48:49.837Z,9.48
2022-12-22T23:51:18.174Z,9.95
2022-12-22T23:53:45.355Z,11.35
2022-12-22T23:56:18.868Z,10.52
